Pindi Bhattian Weather



Pindi Bhattian's Current Weather

Temprature 30.3o moderate rain

moderate rain

Rain: 0 %

Min Temprature30.3o
Max Temprature30.3o
Humidity69
Wind Speed8.46 m/h
Sun Rise05:30:28
Sun Set18:53:15
Current Time: 13-Aug-2020 19:56:01
Lat/Lon: 31.9, 73.27




Pindi Bhattian's Geo Location



Pindi Bhattian's Weather Forecast

Time Overall Temp Min Temp Max Temp Humidity Wind Speed Rain
13-Aug-2020 (Thu)
20:00:00 moderate rain 32.220 30.300 32.220 62 8.46 m/h 418 %
23:00:00 moderate rain 30.610 29.660 30.610 65 4.29 m/h 600 %
14-Aug-2020 (Fri)
02:00:00 light rain 29.830 29.540 29.830 76 4.78 m/h 141 %
05:00:00 light rain 28.960 28.920 28.960 82 4.29 m/h 78 %
08:00:00 light rain 29.770 29.770 29.770 77 4.7 m/h 250 %
11:00:00 scattered clouds 32.930 32.930 32.930 63 3.19 m/h 0 %
14:00:00 scattered clouds 37.930 37.930 37.930 44 1 m/h 0 %
17:00:00 few clouds 38.620 38.620 38.620 40 1.52 m/h 0 %
20:00:00 few clouds 35.010 35.010 35.010 51 3.07 m/h 0 %
23:00:00 light rain 33.510 33.510 33.510 56 4.94 m/h 11 %
15-Aug-2020 (Sat)
02:00:00 light rain 32.570 32.570 32.570 60 3.68 m/h 13 %
05:00:00 light rain 30.990 30.990 30.990 68 2.47 m/h 57 %
08:00:00 clear sky 33.020 33.020 33.020 61 4.27 m/h 0 %
11:00:00 few clouds 35.880 35.880 35.880 48 1.6 m/h 0 %
14:00:00 overcast clouds 38.410 38.410 38.410 41 1.56 m/h 0 %
17:00:00 scattered clouds 39.720 39.720 39.720 36 1.58 m/h 0 %
20:00:00 clear sky 36.330 36.330 36.330 45 3.49 m/h 0 %
23:00:00 clear sky 34.390 34.390 34.390 52 4.86 m/h 0 %
16-Aug-2020 (Sun)
02:00:00 clear sky 33.100 33.100 33.100 56 4.4 m/h 0 %
05:00:00 moderate rain 31.310 31.310 31.310 67 2.98 m/h 339 %
08:00:00 light rain 30.490 30.490 30.490 73 5 m/h 30 %
11:00:00 light rain 35.010 35.010 35.010 54 2.67 m/h 31 %
14:00:00 clear sky 38.640 38.640 38.640 42 2.83 m/h 0 %
17:00:00 clear sky 38.960 38.960 38.960 40 2.23 m/h 0 %
20:00:00 clear sky 36.110 36.110 36.110 48 3.19 m/h 0 %
23:00:00 clear sky 34.390 34.390 34.390 53 4.96 m/h 0 %
17-Aug-2020 (Mon)
02:00:00 light rain 32.770 32.770 32.770 58 3.94 m/h 20 %
05:00:00 moderate rain 30.240 30.240 30.240 72 2.96 m/h 424 %
08:00:00 broken clouds 32.110 32.110 32.110 67 3.76 m/h 0 %
11:00:00 light rain 33.500 33.500 33.500 62 1.65 m/h 22 %
14:00:00 broken clouds 37.990 37.990 37.990 45 2.78 m/h 0 %
17:00:00 broken clouds 39.520 39.520 39.520 39 3.57 m/h 0 %
20:00:00 scattered clouds 34.480 34.480 34.480 57 5.17 m/h 0 %
23:00:00 light rain 32.030 32.030 32.030 65 4.47 m/h 100 %
18-Aug-2020 (Tue)
02:00:00 light rain 31.210 31.210 31.210 69 4.02 m/h 30 %
05:00:00 broken clouds 30.760 30.760 30.760 70 3.11 m/h 0 %
08:00:00 scattered clouds 33.910 33.910 33.910 54 2.39 m/h 0 %
11:00:00 scattered clouds 38.250 38.250 38.250 40 1.95 m/h 0 %
14:00:00 clear sky 40.920 40.920 40.920 34 2.88 m/h 0 %
17:00:00 scattered clouds 39.800 39.800 39.800 38 3.94 m/h 0 %

Famous Cities (60)